createdAt,value
2023-01-01T00:01:22.215Z,16.15
2023-01-01T00:03:52.847Z,16.02
2023-01-01T00:06:19.338Z,16.14
2023-01-01T00:08:45.965Z,16.24
2023-01-01T00:11:12.347Z,16.27
2023-01-01T00:13:40.184Z,16.35
2023-01-01T00:16:13.425Z,16.32
2023-01-01T00:18:40.587Z,16.34
2023-01-01T00:21:10.275Z,16.37
2023-01-01T00:23:36.655Z,16.42
2023-01-01T00:26:10.269Z,16.38
2023-01-01T00:28:36.681Z,16.31
2023-01-01T00:31:21.847Z,16.35
2023-01-01T00:33:51.832Z,16.30
2023-01-01T00:36:18.832Z,16.24
2023-01-01T00:38:46.073Z,16.23
2023-01-01T00:41:13.962Z,16.27
2023-01-01T00:43:40.888Z,16.30
2023-01-01T00:46:07.973Z,16.17
2023-01-01T00:48:34.605Z,16.15
2023-01-01T00:51:01.012Z,16.13
2023-01-01T00:53:27.395Z,16.06
2023-01-01T00:55:56.202Z,16.00
2023-01-01T00:58:24.465Z,15.90
2023-01-01T01:00:51.813Z,15.90
2023-01-01T01:03:30.893Z,15.95
2023-01-01T01:06:10.647Z,16.02
2023-01-01T01:08:39.607Z,15.95
2023-01-01T01:11:12.202Z,16.03
2023-01-01T01:13:39.350Z,15.99
2023-01-01T01:16:17.803Z,15.88
2023-01-01T01:18:44.738Z,15.89
2023-01-01T01:21:14.381Z,15.89
2023-01-01T01:23:40.746Z,15.74
2023-01-01T01:26:28.389Z,15.82
2023-01-01T01:28:55.207Z,15.72
2023-01-01T01:31:23.049Z,15.70
2023-01-01T01:33:50.050Z,15.59
2023-01-01T01:36:17.428Z,15.57
2023-01-01T01:38:44.150Z,15.53
2023-01-01T01:41:26.121Z,15.51
2023-01-01T01:43:54.899Z,15.63
2023-01-01T01:46:33.574Z,15.70
2023-01-01T01:49:06.283Z,15.73
2023-01-01T01:51:37.330Z,15.66
2023-01-01T01:54:08.913Z,15.52
2023-01-01T01:56:42.502Z,15.51
2023-01-01T01:59:09.194Z,15.46
2023-01-01T02:01:35.825Z,15.46
2023-01-01T02:04:02.927Z,15.44
2023-01-01T02:06:30.844Z,15.46
2023-01-01T02:08:59.373Z,15.55
2023-01-01T02:11:25.821Z,15.56
2023-01-01T02:13:53.455Z,15.53
2023-01-01T02:16:22.812Z,15.47
2023-01-01T02:18:57.010Z,15.37
2023-01-01T02:21:27.269Z,15.43
2023-01-01T02:24:12.508Z,15.42
2023-01-01T02:26:49.725Z,15.29
2023-01-01T02:29:28.123Z,15.31
2023-01-01T02:32:13.416Z,15.20
2023-01-01T02:35:34.629Z,15.17
2023-01-01T02:38:07.815Z,15.26
2023-01-01T02:40:36.251Z,15.27
2023-01-01T02:43:03.417Z,15.17
2023-01-01T02:45:29.856Z,15.20
2023-01-01T02:47:56.232Z,15.18
2023-01-01T02:50:25.826Z,15.10
2023-01-01T02:52:59.992Z,15.04
2023-01-01T02:55:37.199Z,15.16
2023-01-01T02:58:38.308Z,14.99
2023-01-01T03:01:45.548Z,15.04
2023-01-01T03:04:26.222Z,14.94
2023-01-01T03:06:59.117Z,15.00
2023-01-01T03:09:40.849Z,15.06
2023-01-01T03:12:13.459Z,14.95
2023-01-01T03:14:44.314Z,15.06
2023-01-01T03:17:20.647Z,15.08
2023-01-01T03:19:48.935Z,15.04
2023-01-01T03:22:17.326Z,15.00
2023-01-01T03:24:52.784Z,14.98
2023-01-01T03:27:22.308Z,14.91
2023-01-01T03:29:51.116Z,14.97
2023-01-01T03:32:21.304Z,14.91
2023-01-01T03:34:51.925Z,14.85
2023-01-01T03:37:23.746Z,14.89
2023-01-01T03:39:56.172Z,14.92
2023-01-01T03:42:28.409Z,14.98
2023-01-01T03:45:05.018Z,14.87
2023-01-01T03:47:31.619Z,14.86
2023-01-01T03:49:58.400Z,14.84
2023-01-01T03:52:32.269Z,14.78
2023-01-01T03:55:20.636Z,14.86
2023-01-01T03:58:03.372Z,15.02
2023-01-01T04:00:35.677Z,14.97
2023-01-01T04:03:06.321Z,15.05
2023-01-01T04:05:38.045Z,14.95
2023-01-01T04:08:04.886Z,14.99
2023-01-01T04:10:33.334Z,15.01
2023-01-01T04:13:03.294Z,15.03
2023-01-01T04:15:31.053Z,14.92
2023-01-01T04:17:57.447Z,14.92
2023-01-01T04:20:24.081Z,14.93
2023-01-01T04:22:50.663Z,14.98
2023-01-01T04:25:17.536Z,14.99
2023-01-01T04:27:44.334Z,14.84
2023-01-01T04:30:13.357Z,14.86
2023-01-01T04:32:40.111Z,14.88
2023-01-01T04:35:07.889Z,14.87
2023-01-01T04:37:37.899Z,14.94
2023-01-01T04:40:05.421Z,14.91
2023-01-01T04:42:31.798Z,14.81
2023-01-01T04:44:58.187Z,14.91
2023-01-01T04:47:26.744Z,14.84
2023-01-01T04:49:53.951Z,14.87
2023-01-01T04:52:20.433Z,14.85
2023-01-01T04:54:46.820Z,14.94
2023-01-01T04:57:13.707Z,14.95
2023-01-01T04:59:40.806Z,14.84
2023-01-01T05:02:07.295Z,14.87
2023-01-01T05:04:33.834Z,14.86
2023-01-01T05:07:00.230Z,14.84
2023-01-01T05:09:26.619Z,14.74
2023-01-01T05:11:54.482Z,14.71
2023-01-01T05:14:20.851Z,14.76
2023-01-01T05:16:47.274Z,14.87
2023-01-01T05:19:14.009Z,14.76
2023-01-01T05:21:40.884Z,14.75
2023-01-01T05:24:09.324Z,14.70
2023-01-01T05:26:38.026Z,14.74
2023-01-01T05:29:10.330Z,14.74
2023-01-01T05:31:41.909Z,14.77
2023-01-01T05:36:38.496Z,14.56
2023-01-01T05:39:09.353Z,14.58
2023-01-01T05:41:38.605Z,14.56
2023-01-01T05:44:07.100Z,14.53
2023-01-01T05:46:33.524Z,14.64
2023-01-01T05:49:00.406Z,14.54
2023-01-01T05:51:28.615Z,14.52
2023-01-01T05:53:55.924Z,14.53
2023-01-01T05:56:22.942Z,14.52
2023-01-01T05:58:49.463Z,14.50
2023-01-01T06:01:21.008Z,14.69
2023-01-01T06:03:50.951Z,14.65
2023-01-01T06:06:19.450Z,14.67
2023-01-01T06:08:50.728Z,14.60
2023-01-01T06:11:17.433Z,14.48
2023-01-01T06:13:43.815Z,14.40
2023-01-01T06:16:10.524Z,14.45
2023-01-01T06:18:37.475Z,14.41
2023-01-01T06:21:09.825Z,14.37
2023-01-01T06:23:36.643Z,14.22
2023-01-01T06:26:14.398Z,14.04
2023-01-01T06:28:41.206Z,14.13
2023-01-01T06:31:08.872Z,13.97
2023-01-01T06:33:35.551Z,14.14
2023-01-01T06:36:03.541Z,14.19
2023-01-01T06:38:37.851Z,14.14
2023-01-01T06:41:06.621Z,14.17
2023-01-01T06:43:35.230Z,14.25
2023-01-01T06:46:14.497Z,14.25
2023-01-01T06:48:40.882Z,14.28
2023-01-01T06:51:09.078Z,14.22
2023-01-01T06:53:35.711Z,14.33
2023-01-01T06:56:02.370Z,14.32
2023-01-01T06:58:28.794Z,14.31
2023-01-01T07:00:55.243Z,14.31
2023-01-01T07:03:21.742Z,14.23
2023-01-01T07:05:48.136Z,14.34
2023-01-01T07:08:14.538Z,14.37
2023-01-01T07:10:40.932Z,14.30
2023-01-01T07:13:07.301Z,14.21
2023-01-01T07:15:33.724Z,14.21
2023-01-01T07:18:00.130Z,14.12
2023-01-01T07:20:26.525Z,14.06
2023-01-01T07:22:52.886Z,14.04
2023-01-01T07:25:19.283Z,14.03
2023-01-01T07:27:45.655Z,14.09
2023-01-01T07:30:12.138Z,13.95
2023-01-01T07:32:38.497Z,14.00
2023-01-01T07:35:05.141Z,13.97
2023-01-01T07:37:31.546Z,14.03
2023-01-01T07:39:57.921Z,13.97
2023-01-01T07:42:24.367Z,13.93
2023-01-01T07:44:50.759Z,13.74
2023-01-01T07:47:26.642Z,13.62
2023-01-01T07:49:53.204Z,13.47
2023-01-01T07:52:19.756Z,13.33
2023-01-01T07:54:46.181Z,13.20
2023-01-01T07:57:12.661Z,13.30
2023-01-01T07:59:39.059Z,13.28
2023-01-01T08:02:05.553Z,13.20
2023-01-01T08:04:32.022Z,13.28
2023-01-01T08:06:58.388Z,13.17
2023-01-01T08:09:24.770Z,13.36
2023-01-01T08:11:53.086Z,13.35
2023-01-01T08:14:19.820Z,13.28
2023-01-01T08:16:46.214Z,13.37
2023-01-01T08:19:12.646Z,13.28
2023-01-01T08:21:39.032Z,13.14
2023-01-01T08:24:05.543Z,13.07
2023-01-01T08:26:33.758Z,13.03
2023-01-01T08:29:03.049Z,12.99
2023-01-01T08:31:29.556Z,13.09
2023-01-01T08:33:56.076Z,13.01
2023-01-01T08:36:22.567Z,12.97
2023-01-01T08:38:48.966Z,13.02
2023-01-01T08:41:15.449Z,13.11
2023-01-01T08:43:41.828Z,13.13
2023-01-01T08:46:08.307Z,13.23
2023-01-01T08:48:34.749Z,13.21
2023-01-01T08:51:01.378Z,13.16
2023-01-01T08:53:29.470Z,13.16
2023-01-01T08:55:57.481Z,13.18
2023-01-01T08:58:23.976Z,13.26
2023-01-01T09:00:50.369Z,13.19
2023-01-01T09:03:16.851Z,13.24
2023-01-01T09:05:45.773Z,13.18
2023-01-01T09:08:12.829Z,13.26
2023-01-01T09:10:39.678Z,13.29
2023-01-01T09:13:06.105Z,13.33
2023-01-01T09:15:32.538Z,13.33
2023-01-01T09:17:58.912Z,13.37
2023-01-01T09:20:25.407Z,13.42
2023-01-01T09:22:51.851Z,13.48
2023-01-01T09:25:18.366Z,13.50
2023-01-01T09:27:44.779Z,13.52
2023-01-01T09:30:11.790Z,13.51
2023-01-01T09:32:38.210Z,13.56
2023-01-01T09:35:04.856Z,13.48
2023-01-01T09:37:31.378Z,13.47
2023-01-01T09:39:57.932Z,13.54
2023-01-01T09:42:45.462Z,13.59
2023-01-01T09:45:27.013Z,13.57
2023-01-01T09:48:00.014Z,13.66
2023-01-01T09:50:46.181Z,13.65
2023-01-01T09:53:20.883Z,13.67
2023-01-01T09:55:58.351Z,13.76
2023-01-01T09:58:36.093Z,13.75
2023-01-01T10:01:30.487Z,13.69
2023-01-01T10:04:23.091Z,13.71
2023-01-01T10:06:55.153Z,13.69
2023-01-01T10:09:28.965Z,13.65
2023-01-01T10:12:07.603Z,13.74
2023-01-01T10:14:41.508Z,13.70
2023-01-01T10:17:34.688Z,13.73
2023-01-01T10:20:25.916Z,13.67
2023-01-01T10:22:55.616Z,13.68
2023-01-01T10:25:24.989Z,13.68
2023-01-01T10:27:59.728Z,13.65
2023-01-01T10:30:27.772Z,13.71
2023-01-01T10:32:55.175Z,13.73
2023-01-01T10:35:36.137Z,13.65
2023-01-01T10:38:03.791Z,13.68
2023-01-01T10:40:31.123Z,13.65
2023-01-01T10:42:59.971Z,13.76
2023-01-01T10:45:33.002Z,13.78
2023-01-01T10:48:21.778Z,13.77
2023-01-01T10:50:53.595Z,13.83
2023-01-01T10:53:27.656Z,13.84
2023-01-01T10:56:23.806Z,13.85
2023-01-01T10:58:52.328Z,13.84
2023-01-01T11:01:18.653Z,13.83
2023-01-01T11:04:01.428Z,13.82
2023-01-01T11:06:35.451Z,13.92
2023-01-01T11:09:04.934Z,13.87
2023-01-01T11:11:37.835Z,13.93
2023-01-01T11:14:05.492Z,13.95
2023-01-01T11:16:32.595Z,13.93
2023-01-01T11:19:05.413Z,13.95
2023-01-01T11:21:32.188Z,14.02
2023-01-01T11:24:30.766Z,13.98
2023-01-01T11:27:19.206Z,13.93
2023-01-01T11:29:45.756Z,13.88
2023-01-01T11:32:19.137Z,13.87
2023-01-01T11:34:46.400Z,13.85
2023-01-01T11:37:27.097Z,13.87
2023-01-01T11:39:54.965Z,13.91
2023-01-01T11:42:24.039Z,13.95
2023-01-01T11:45:01.554Z,13.98
2023-01-01T11:47:35.814Z,13.97
2023-01-01T11:50:14.332Z,14.00
2023-01-01T11:52:51.582Z,14.03
2023-01-01T11:55:34.190Z,14.10
2023-01-01T11:58:19.354Z,14.02
2023-01-01T12:00:47.977Z,14.09
2023-01-01T12:03:20.250Z,14.04
2023-01-01T12:05:58.747Z,14.13
2023-01-01T12:08:35.441Z,14.09
2023-01-01T12:11:09.104Z,14.03
2023-01-01T12:13:50.944Z,14.03
2023-01-01T12:16:22.899Z,13.97
2023-01-01T12:19:02.741Z,13.95
2023-01-01T12:21:30.009Z,14.02
2023-01-01T12:23:56.614Z,14.07
2023-01-01T12:26:32.531Z,14.02
2023-01-01T12:29:17.877Z,14.05
2023-01-01T12:32:02.943Z,14.02
2023-01-01T12:34:33.934Z,13.98
2023-01-01T12:37:37.953Z,14.05
2023-01-01T12:40:17.055Z,14.05
2023-01-01T12:43:17.792Z,14.09
2023-01-01T12:46:05.758Z,14.09
2023-01-01T12:48:57.384Z,14.04
2023-01-01T12:51:45.500Z,14.11
2023-01-01T12:54:33.705Z,14.01
2023-01-01T12:57:18.682Z,14.01
2023-01-01T12:59:48.496Z,14.03
2023-01-01T13:02:27.965Z,13.97
2023-01-01T13:05:07.074Z,13.94
2023-01-01T13:07:39.844Z,13.93
2023-01-01T13:10:12.570Z,13.89
2023-01-01T13:12:39.028Z,13.92
2023-01-01T13:15:40.156Z,13.87
2023-01-01T13:18:15.794Z,13.84
2023-01-01T13:20:44.982Z,13.91
2023-01-01T13:23:35.964Z,13.91
2023-01-01T13:26:17.652Z,13.84
2023-01-01T13:29:09.592Z,13.84
2023-01-01T13:31:39.391Z,13.84
2023-01-01T13:34:30.500Z,13.73
2023-01-01T13:37:15.243Z,13.84
2023-01-01T13:40:13.226Z,13.75
2023-01-01T13:42:44.317Z,13.81
2023-01-01T13:45:36.534Z,13.70
2023-01-01T13:48:25.430Z,13.65
2023-01-01T13:51:55.314Z,13.61
2023-01-01T13:54:48.656Z,13.59
2023-01-01T13:57:36.523Z,13.58
2023-01-01T14:00:33.940Z,13.56
2023-01-01T14:03:11.414Z,13.57
2023-01-01T14:05:58.586Z,13.65
2023-01-01T14:08:33.520Z,13.63
2023-01-01T14:11:02.101Z,13.59
2023-01-01T14:13:32.199Z,13.54
2023-01-01T14:16:01.332Z,13.53
2023-01-01T14:18:38.600Z,13.60
2023-01-01T14:21:13.778Z,13.61
2023-01-01T14:23:41.924Z,13.48
2023-01-01T14:26:22.782Z,13.45
2023-01-01T14:28:53.518Z,13.44
2023-01-01T14:31:21.538Z,13.43
2023-01-01T14:33:48.236Z,13.36
2023-01-01T14:36:23.811Z,13.41
2023-01-01T14:38:52.289Z,13.31
2023-01-01T14:41:28.482Z,13.34
2023-01-01T14:43:57.751Z,13.30
2023-01-01T14:46:25.696Z,13.29
2023-01-01T14:48:58.543Z,13.31
2023-01-01T14:51:29.969Z,13.30
2023-01-01T14:53:59.099Z,13.25
2023-01-01T14:56:29.135Z,13.25
2023-01-01T14:59:05.468Z,13.26
2023-01-01T15:01:31.983Z,13.37
2023-01-01T15:03:59.575Z,13.35
2023-01-01T15:06:26.093Z,13.35
2023-01-01T15:08:53.024Z,13.35
2023-01-01T15:11:26.649Z,13.37
2023-01-01T15:13:57.876Z,13.29
2023-01-01T15:16:24.530Z,13.18
2023-01-01T15:18:53.062Z,13.19
2023-01-01T15:21:35.022Z,13.10
2023-01-01T15:24:16.339Z,13.19
2023-01-01T15:26:48.266Z,13.29
2023-01-01T15:29:24.334Z,13.15
2023-01-01T15:31:54.823Z,13.28
2023-01-01T15:34:24.519Z,13.18
2023-01-01T15:36:52.351Z,13.10
2023-01-01T15:39:19.133Z,13.21
2023-01-01T15:41:48.241Z,13.23
2023-01-01T15:44:25.737Z,13.16
2023-01-01T15:46:52.652Z,13.16
2023-01-01T15:49:27.458Z,13.13
2023-01-01T15:52:04.034Z,13.24
2023-01-01T15:54:30.605Z,13.31
2023-01-01T15:56:57.029Z,13.28
2023-01-01T15:59:27.465Z,13.29
2023-01-01T16:02:04.761Z,13.14
2023-01-01T16:04:31.443Z,13.16
2023-01-01T16:06:58.804Z,13.13
2023-01-01T16:09:25.437Z,13.16
2023-01-01T16:11:53.322Z,13.10
2023-01-01T16:14:19.866Z,13.04
2023-01-01T16:16:50.825Z,12.92
2023-01-01T16:19:18.022Z,12.96
2023-01-01T16:21:44.431Z,12.98
2023-01-01T16:24:14.677Z,13.02
2023-01-01T16:26:41.804Z,12.91
2023-01-01T16:29:08.277Z,12.95
2023-01-01T16:31:34.955Z,13.03
2023-01-01T16:34:02.171Z,12.98
2023-01-01T16:36:29.347Z,12.86
2023-01-01T16:38:56.505Z,12.83
2023-01-01T16:41:23.855Z,12.83
2023-01-01T16:43:50.234Z,12.85
2023-01-01T16:46:16.667Z,12.76
2023-01-01T16:48:43.607Z,12.62
2023-01-01T16:51:29.690Z,12.57
2023-01-01T16:53:57.220Z,12.57
2023-01-01T16:56:23.635Z,12.52
2023-01-01T16:58:53.207Z,12.50
2023-01-01T17:01:24.804Z,12.49
2023-01-01T17:03:51.302Z,12.39
2023-01-01T17:06:18.001Z,12.38
2023-01-01T17:08:44.455Z,12.31
2023-01-01T17:11:16.769Z,12.26
2023-01-01T17:13:44.863Z,12.12
2023-01-01T17:16:12.333Z,11.98
2023-01-01T17:19:13.236Z,11.99
2023-01-01T17:21:26.002Z,11.86
2023-01-01T17:23:53.247Z,11.92
2023-01-01T17:26:21.255Z,11.78
2023-01-01T17:28:49.064Z,11.85
2023-01-01T17:31:17.628Z,11.77
2023-01-01T17:33:44.156Z,11.80
2023-01-01T17:36:10.950Z,11.65
2023-01-01T17:38:38.435Z,11.66
2023-01-01T17:41:10.273Z,11.72
2023-01-01T17:43:41.892Z,11.62
2023-01-01T17:46:12.496Z,11.61
2023-01-01T17:48:39.499Z,11.73
2023-01-01T17:51:05.958Z,11.62
2023-01-01T17:53:32.454Z,11.69
2023-01-01T17:55:58.934Z,11.65
2023-01-01T17:58:29.517Z,11.54
2023-01-01T18:01:30.543Z,11.53
2023-01-01T18:04:02.029Z,11.61
2023-01-01T18:06:30.254Z,11.63
2023-01-01T18:09:01.197Z,11.72
2023-01-01T18:11:29.134Z,11.68
2023-01-01T18:13:56.771Z,11.73
2023-01-01T18:16:23.330Z,11.55
2023-01-01T18:18:50.015Z,11.53
2023-01-01T18:21:20.663Z,11.60
2023-01-01T18:23:48.371Z,11.44
2023-01-01T18:26:14.925Z,11.51
2023-01-01T18:28:41.361Z,11.62
2023-01-01T18:31:13.051Z,11.50
2023-01-01T18:33:39.824Z,11.49
2023-01-01T18:36:12.165Z,11.39
2023-01-01T18:38:39.965Z,11.50
2023-01-01T18:41:34.091Z,11.43
2023-01-01T18:44:00.712Z,11.40
2023-01-01T18:46:28.755Z,11.35
2023-01-01T18:48:59.289Z,11.43
2023-01-01T18:51:25.863Z,11.46
2023-01-01T18:53:55.890Z,11.46
2023-01-01T18:56:23.181Z,11.34
2023-01-01T18:58:50.384Z,11.27
2023-01-01T19:01:20.326Z,11.36
2023-01-01T19:03:49.704Z,11.39
2023-01-01T19:06:20.253Z,11.24
2023-01-01T19:08:46.731Z,11.32
2023-01-01T19:11:16.408Z,11.27
2023-01-01T19:13:42.869Z,11.34
2023-01-01T19:16:12.228Z,11.45
2023-01-01T19:18:40.910Z,11.37
2023-01-01T19:21:10.432Z,11.41
2023-01-01T19:23:38.719Z,11.28
2023-01-01T19:26:05.906Z,11.38
2023-01-01T19:28:36.497Z,11.25
2023-01-01T19:31:04.879Z,11.15
2023-01-01T19:33:31.397Z,11.23
2023-01-01T19:35:58.292Z,11.04
2023-01-01T19:38:24.774Z,11.12
2023-01-01T19:40:51.158Z,11.12
2023-01-01T19:43:17.599Z,11.14
2023-01-01T19:45:44.160Z,11.14
2023-01-01T19:48:10.554Z,11.25
2023-01-01T19:50:36.957Z,11.18
2023-01-01T19:53:03.318Z,11.19
2023-01-01T19:55:29.706Z,11.22
2023-01-01T19:57:56.181Z,11.22
2023-01-01T20:00:23.612Z,11.20
2023-01-01T20:02:50.172Z,11.17
2023-01-01T20:05:16.880Z,11.30
2023-01-01T20:07:43.308Z,11.28
2023-01-01T20:10:09.929Z,11.33
2023-01-01T20:12:36.319Z,11.26
2023-01-01T20:15:02.717Z,11.36
2023-01-01T20:17:30.598Z,11.31
2023-01-01T20:19:58.220Z,11.21
2023-01-01T20:22:24.834Z,11.37
2023-01-01T20:24:51.300Z,11.37
2023-01-01T20:27:17.851Z,11.32
2023-01-01T20:29:44.546Z,11.29
2023-01-01T20:32:12.818Z,11.32
2023-01-01T20:34:40.298Z,11.29
2023-01-01T20:37:25.240Z,11.29
2023-01-01T20:39:51.612Z,11.44
2023-01-01T20:42:18.166Z,11.49
2023-01-01T20:44:44.642Z,11.54
2023-01-01T20:47:11.902Z,11.49
2023-01-01T20:49:38.834Z,11.34
2023-01-01T20:52:05.219Z,11.32
2023-01-01T20:54:31.805Z,11.31
2023-01-01T20:56:58.169Z,11.30
2023-01-01T20:59:35.407Z,11.33
2023-01-01T21:02:05.430Z,11.28
2023-01-01T21:04:32.085Z,11.15
2023-01-01T21:06:58.504Z,11.19
2023-01-01T21:09:24.892Z,11.10
2023-01-01T21:11:51.318Z,11.08
2023-01-01T21:14:17.910Z,11.24
2023-01-01T21:16:44.832Z,11.33
2023-01-01T21:19:12.440Z,11.41
2023-01-01T21:21:43.736Z,11.32
2023-01-01T21:24:23.357Z,11.44
2023-01-01T21:26:51.961Z,11.46
2023-01-01T21:29:23.941Z,11.43
2023-01-01T21:31:52.569Z,11.42
2023-01-01T21:34:40.565Z,11.39
2023-01-01T21:37:52.434Z,11.44
2023-01-01T21:40:21.850Z,11.50
2023-01-01T21:42:48.965Z,11.56
2023-01-01T21:45:19.442Z,11.41
2023-01-01T21:47:45.818Z,11.35
2023-01-01T21:50:25.517Z,11.60
2023-01-01T21:52:57.208Z,11.57
2023-01-01T21:55:26.338Z,11.57
2023-01-01T21:58:17.767Z,11.68
2023-01-01T22:00:47.357Z,11.77
2023-01-01T22:03:14.682Z,11.88
2023-01-01T22:05:42.380Z,12.14
2023-01-01T22:08:24.177Z,12.19
2023-01-01T22:10:50.586Z,12.24
2023-01-01T22:13:17.981Z,12.24
2023-01-01T22:15:45.712Z,12.18
2023-01-01T22:18:12.006Z,12.35
2023-01-01T22:20:39.462Z,12.47
2023-01-01T22:23:20.304Z,12.40
2023-01-01T22:25:47.259Z,12.39
2023-01-01T22:28:23.589Z,12.56
2023-01-01T22:30:54.047Z,12.58
2023-01-01T22:33:50.148Z,12.50
2023-01-01T22:36:26.082Z,12.47
2023-01-01T22:38:58.375Z,12.55
2023-01-01T22:41:24.679Z,12.56
2023-01-01T22:43:56.049Z,12.71
2023-01-01T22:46:29.918Z,12.77
2023-01-01T22:49:16.555Z,12.83
2023-01-01T22:51:44.043Z,12.86
2023-01-01T22:54:10.486Z,12.84
2023-01-01T22:56:36.874Z,12.90
2023-01-01T22:59:03.558Z,12.94
2023-01-01T23:01:29.993Z,12.97
2023-01-01T23:03:56.576Z,12.98
2023-01-01T23:06:23.054Z,12.97
2023-01-01T23:08:50.392Z,13.00
2023-01-01T23:11:16.946Z,13.11
2023-01-01T23:14:06.587Z,13.05
2023-01-01T23:16:33.010Z,13.01
2023-01-01T23:18:59.429Z,12.99
2023-01-01T23:21:27.320Z,13.00
2023-01-01T23:23:56.302Z,13.05
2023-01-01T23:26:23.077Z,13.08
2023-01-01T23:28:49.603Z,13.04
2023-01-01T23:31:24.322Z,13.15
2023-01-01T23:33:51.720Z,13.17
2023-01-01T23:36:18.129Z,13.17
2023-01-01T23:38:44.543Z,13.23
2023-01-01T23:41:10.949Z,13.23
2023-01-01T23:43:43.256Z,13.33
2023-01-01T23:46:11.669Z,13.34
2023-01-01T23:48:38.239Z,13.37
2023-01-01T23:51:05.153Z,13.33
2023-01-01T23:53:31.554Z,13.39
2023-01-01T23:55:57.927Z,13.45
2023-01-01T23:58:24.323Z,13.47
